sensor_id;sensor_type;location;lat;lon;timestamp;pressure;altitude;pressure_sealevel;temperature;humidity
64066;BME280;50318;54.760;9.408;2022-11-20T00:00:54;100810.16;;;7.08;57.03
64066;BME280;50318;54.760;9.408;2022-11-20T00:03:19;100820.16;;;7.15;57.17
64066;BME280;50318;54.760;9.408;2022-11-20T00:05:45;100824.75;;;7.18;56.94
64066;BME280;50318;54.760;9.408;2022-11-20T00:08:11;100817.69;;;7.21;57.70
64066;BME280;50318;54.760;9.408;2022-11-20T00:10:38;100818.38;;;7.25;57.44
64066;BME280;50318;54.760;9.408;2022-11-20T00:13:05;100810.53;;;7.27;56.72
64066;BME280;50318;54.760;9.408;2022-11-20T00:15:31;100808.56;;;7.27;57.03
64066;BME280;50318;54.760;9.408;2022-11-20T00:17:56;100805.16;;;7.23;57.26
64066;BME280;50318;54.760;9.408;2022-11-20T00:20:23;100805.06;;;7.27;57.07
64066;BME280;50318;54.760;9.408;2022-11-20T00:22:49;100807.47;;;7.25;56.86
64066;BME280;50318;54.760;9.408;2022-11-20T00:25:15;100807.81;;;7.27;56.49
64066;BME280;50318;54.760;9.408;2022-11-20T00:27:41;100802.00;;;7.25;56.10
64066;BME280;50318;54.760;9.408;2022-11-20T00:30:07;100804.72;;;7.25;56.54
64066;BME280;50318;54.760;9.408;2022-11-20T00:32:39;100791.84;;;7.25;57.50
64066;BME280;50318;54.760;9.408;2022-11-20T00:35:06;100803.97;;;7.24;56.05
64066;BME280;50318;54.760;9.408;2022-11-20T00:37:31;100793.91;;;7.21;56.66
64066;BME280;50318;54.760;9.408;2022-11-20T00:39:57;100794.34;;;7.20;57.08
64066;BME280;50318;54.760;9.408;2022-11-20T00:42:26;100795.00;;;7.24;57.14
64066;BME280;50318;54.760;9.408;2022-11-20T00:44:53;100798.94;;;7.23;56.90
64066;BME280;50318;54.760;9.408;2022-11-20T00:47:19;100794.59;;;7.25;57.95
64066;BME280;50318;54.760;9.408;2022-11-20T00:49:44;100796.13;;;7.26;57.54
64066;BME280;50318;54.760;9.408;2022-11-20T00:52:13;100784.44;;;7.26;57.07
64066;BME280;50318;54.760;9.408;2022-11-20T00:54:59;100777.53;;;7.21;56.98
64066;BME280;50318;54.760;9.408;2022-11-20T00:57:25;100796.56;;;7.25;57.15
64066;BME280;50318;54.760;9.408;2022-11-20T00:59:51;100798.16;;;7.22;57.04
64066;BME280;50318;54.760;9.408;2022-11-20T01:02:16;100790.75;;;7.23;56.78
64066;BME280;50318;54.760;9.408;2022-11-20T01:04:42;100798.94;;;7.23;56.83
64066;BME280;50318;54.760;9.408;2022-11-20T01:07:08;100792.28;;;7.24;57.11
64066;BME280;50318;54.760;9.408;2022-11-20T01:09:34;100788.88;;;7.20;57.11
64066;BME280;50318;54.760;9.408;2022-11-20T01:12:00;100793.13;;;7.21;57.56
64066;BME280;50318;54.760;9.408;2022-11-20T01:14:25;100793.81;;;7.25;57.82
64066;BME280;50318;54.760;9.408;2022-11-20T01:16:52;100783.25;;;7.27;57.58
64066;BME280;50318;54.760;9.408;2022-11-20T01:19:26;100789.13;;;7.25;57.02
64066;BME280;50318;54.760;9.408;2022-11-20T01:21:53;100786.41;;;7.25;57.85
64066;BME280;50318;54.760;9.408;2022-11-20T01:24:21;100794.59;;;7.25;57.56
64066;BME280;50318;54.760;9.408;2022-11-20T01:26:48;100791.53;;;7.23;57.94
64066;BME280;50318;54.760;9.408;2022-11-20T01:29:24;100784.34;;;7.29;56.96
64066;BME280;50318;54.760;9.408;2022-11-20T01:31:51;100781.97;;;7.31;57.86
64066;BME280;50318;54.760;9.408;2022-11-20T01:34:18;100779.25;;;7.31;57.88
64066;BME280;50318;54.760;9.408;2022-11-20T01:36:57;100777.66;;;7.34;58.48
64066;BME280;50318;54.760;9.408;2022-11-20T01:39:25;100774.50;;;7.35;57.51
64066;BME280;50318;54.760;9.408;2022-11-20T01:41:53;100772.97;;;7.34;57.57
64066;BME280;50318;54.760;9.408;2022-11-20T01:47:07;100770.28;;;7.31;58.18
64066;BME280;50318;54.760;9.408;2022-11-20T01:49:42;100763.91;;;7.21;57.25
64066;BME280;50318;54.760;9.408;2022-11-20T01:52:15;100760.06;;;7.19;58.02
64066;BME280;50318;54.760;9.408;2022-11-20T01:55:05;100767.56;;;7.15;58.15
64066;BME280;50318;54.760;9.408;2022-11-20T01:57:34;100767.56;;;7.15;58.37
64066;BME280;50318;54.760;9.408;2022-11-20T02:00:07;100767.13;;;7.16;58.54
64066;BME280;50318;54.760;9.408;2022-11-20T02:02:52;100763.97;;;7.18;58.09
64066;BME280;50318;54.760;9.408;2022-11-20T02:08:15;100761.41;;;7.11;59.04
64066;BME280;50318;54.760;9.408;2022-11-20T02:10:48;100760.22;;;7.12;58.42
64066;BME280;50318;54.760;9.408;2022-11-20T02:13:14;100734.53;;;7.09;58.70
64066;BME280;50318;54.760;9.408;2022-11-20T02:16:09;100746.22;;;7.09;59.14
64066;BME280;50318;54.760;9.408;2022-11-20T02:18:35;100741.19;;;7.08;58.83
64066;BME280;50318;54.760;9.408;2022-11-20T02:21:16;100739.31;;;7.05;58.75
64066;BME280;50318;54.760;9.408;2022-11-20T02:26:24;100734.19;;;6.91;59.09
64066;BME280;50318;54.760;9.408;2022-11-20T02:28:53;100738.19;;;6.86;60.99
64066;BME280;50318;54.760;9.408;2022-11-20T02:31:19;100747.91;;;6.87;60.99
64066;BME280;50318;54.760;9.408;2022-11-20T02:33:45;100741.28;;;6.88;60.71
64066;BME280;50318;54.760;9.408;2022-11-20T02:36:14;100740.50;;;6.88;60.84
64066;BME280;50318;54.760;9.408;2022-11-20T02:38:41;100735.09;;;6.84;61.02
64066;BME280;50318;54.760;9.408;2022-11-20T02:41:07;100735.59;;;6.79;60.70
64066;BME280;50318;54.760;9.408;2022-11-20T02:43:33;100736.81;;;6.78;61.42
64066;BME280;50318;54.760;9.408;2022-11-20T02:45:58;100740.63;;;6.81;61.64
64066;BME280;50318;54.760;9.408;2022-11-20T02:48:24;100738.25;;;6.83;61.69
64066;BME280;50318;54.760;9.408;2022-11-20T02:50:50;100729.72;;;6.81;61.86
64066;BME280;50318;54.760;9.408;2022-11-20T02:53:16;100728.44;;;6.85;62.32
64066;BME280;50318;54.760;9.408;2022-11-20T02:55:41;100737.41;;;6.86;60.70
64066;BME280;50318;54.760;9.408;2022-11-20T02:58:30;100730.50;;;6.81;62.42
64066;BME280;50318;54.760;9.408;2022-11-20T03:00:56;100728.19;;;6.80;61.56
64066;BME280;50318;54.760;9.408;2022-11-20T03:03:22;100735.94;;;6.81;62.17
64066;BME280;50318;54.760;9.408;2022-11-20T03:05:48;100725.91;;;6.78;61.70
64066;BME280;50318;54.760;9.408;2022-11-20T03:08:13;100728.34;;;6.72;62.05
64066;BME280;50318;54.760;9.408;2022-11-20T03:10:39;100726.47;;;6.69;62.86
64066;BME280;50318;54.760;9.408;2022-11-20T03:13:05;100734.16;;;6.74;62.45
64066;BME280;50318;54.760;9.408;2022-11-20T03:15:31;100732.13;;;6.78;62.18
64066;BME280;50318;54.760;9.408;2022-11-20T03:17:56;100740.63;;;6.81;62.23
64066;BME280;50318;54.760;9.408;2022-11-20T03:20:22;100733.56;;;6.83;62.61
64066;BME280;50318;54.760;9.408;2022-11-20T03:22:48;100727.63;;;6.88;62.15
64066;BME280;50318;54.760;9.408;2022-11-20T03:25:14;100727.13;;;6.93;62.25
64066;BME280;50318;54.760;9.408;2022-11-20T03:27:40;100733.25;;;6.97;62.07
64066;BME280;50318;54.760;9.408;2022-11-20T03:30:06;100730.13;;;6.99;62.06
64066;BME280;50318;54.760;9.408;2022-11-20T03:32:32;100729.25;;;7.02;62.74
64066;BME280;50318;54.760;9.408;2022-11-20T03:34:58;100720.72;;;7.00;61.26
64066;BME280;50318;54.760;9.408;2022-11-20T03:37:23;100720.41;;;6.98;61.25
64066;BME280;50318;54.760;9.408;2022-11-20T03:39:49;100711.44;;;6.97;62.14
64066;BME280;50318;54.760;9.408;2022-11-20T03:42:15;100714.59;;;6.96;62.45
64066;BME280;50318;54.760;9.408;2022-11-20T03:45:04;100721.75;;;6.90;61.85
64066;BME280;50318;54.760;9.408;2022-11-20T03:47:29;100723.28;;;6.91;61.81
64066;BME280;50318;54.760;9.408;2022-11-20T03:49:55;100715.53;;;6.89;61.77
64066;BME280;50318;54.760;9.408;2022-11-20T03:52:21;100725.59;;;6.92;62.27
64066;BME280;50318;54.760;9.408;2022-11-20T03:54:47;100712.31;;;6.94;62.06
64066;BME280;50318;54.760;9.408;2022-11-20T03:57:12;100709.81;;;7.00;62.60
64066;BME280;50318;54.760;9.408;2022-11-20T03:59:38;100712.91;;;7.02;62.36
64066;BME280;50318;54.760;9.408;2022-11-20T04:02:04;100716.31;;;7.06;62.49
64066;BME280;50318;54.760;9.408;2022-11-20T04:04:30;100719.03;;;7.06;61.43
64066;BME280;50318;54.760;9.408;2022-11-20T04:06:55;100712.81;;;7.05;62.04
64066;BME280;50318;54.760;9.408;2022-11-20T04:09:21;100715.44;;;7.09;62.59
64066;BME280;50318;54.760;9.408;2022-11-20T04:11:47;100714.63;;;7.12;62.26
64066;BME280;50318;54.760;9.408;2022-11-20T04:14:15;100713.09;;;7.11;61.81
64066;BME280;50318;54.760;9.408;2022-11-20T04:16:41;100713.44;;;7.13;62.04
64066;BME280;50318;54.760;9.408;2022-11-20T04:19:15;100711.91;;;7.12;62.02
64066;BME280;50318;54.760;9.408;2022-11-20T04:21:42;100704.13;;;7.11;62.08
64066;BME280;50318;54.760;9.408;2022-11-20T04:24:09;100711.56;;;7.10;62.01
64066;BME280;50318;54.760;9.408;2022-11-20T04:26:36;100715.81;;;7.11;61.90
64066;BME280;50318;54.760;9.408;2022-11-20T04:29:03;100708.81;;;7.10;61.90
64066;BME280;50318;54.760;9.408;2022-11-20T04:31:30;100699.44;;;7.11;61.86
64066;BME280;50318;54.760;9.408;2022-11-20T04:34:01;100706.00;;;7.14;62.49
64066;BME280;50318;54.760;9.408;2022-11-20T04:36:28;100703.38;;;7.10;61.50
64066;BME280;50318;54.760;9.408;2022-11-20T04:38:59;100698.69;;;7.11;62.16
64066;BME280;50318;54.760;9.408;2022-11-20T04:41:31;100695.34;;;7.03;61.76
64066;BME280;50318;54.760;9.408;2022-11-20T04:43:59;100705.06;;;7.04;62.48
64066;BME280;50318;54.760;9.408;2022-11-20T04:46:28;100694.16;;;7.04;62.15
64066;BME280;50318;54.760;9.408;2022-11-20T04:48:54;100693.47;;;7.00;62.08
64066;BME280;50318;54.760;9.408;2022-11-20T04:51:20;100699.69;;;7.00;62.22
64066;BME280;50318;54.760;9.408;2022-11-20T04:53:46;100701.31;;;6.98;61.47
64066;BME280;50318;54.760;9.408;2022-11-20T04:56:12;100704.53;;;6.93;62.62
64066;BME280;50318;54.760;9.408;2022-11-20T04:58:39;100698.25;;;6.96;62.03
64066;BME280;50318;54.760;9.408;2022-11-20T05:01:07;100701.31;;;6.98;61.85
64066;BME280;50318;54.760;9.408;2022-11-20T05:03:34;100698.56;;;6.98;62.40
64066;BME280;50318;54.760;9.408;2022-11-20T05:06:01;100697.38;;;6.99;62.42
64066;BME280;50318;54.760;9.408;2022-11-20T05:08:28;100691.94;;;6.99;61.95
64066;BME280;50318;54.760;9.408;2022-11-20T05:10:59;100691.94;;;6.99;62.21
64066;BME280;50318;54.760;9.408;2022-11-20T05:13:26;100689.53;;;7.01;62.09
64066;BME280;50318;54.760;9.408;2022-11-20T05:15:52;100694.66;;;6.99;61.73
64066;BME280;50318;54.760;9.408;2022-11-20T05:18:18;100700.72;;;6.90;62.21
64066;BME280;50318;54.760;9.408;2022-11-20T05:20:43;100702.38;;;6.84;62.25
64066;BME280;50318;54.760;9.408;2022-11-20T05:23:09;100701.69;;;6.80;62.84
64066;BME280;50318;54.760;9.408;2022-11-20T05:25:35;100692.16;;;6.72;62.19
64066;BME280;50318;54.760;9.408;2022-11-20T05:28:01;100681.53;;;6.58;62.02
64066;BME280;50318;54.760;9.408;2022-11-20T05:30:26;100687.06;;;6.54;62.30
64066;BME280;50318;54.760;9.408;2022-11-20T05:32:52;100692.25;;;6.49;61.94
64066;BME280;50318;54.760;9.408;2022-11-20T05:35:18;100685.00;;;6.42;61.46
64066;BME280;50318;54.760;9.408;2022-11-20T05:37:43;100682.63;;;6.44;62.52
64066;BME280;50318;54.760;9.408;2022-11-20T05:40:10;100684.59;;;6.43;62.29
64066;BME280;50318;54.760;9.408;2022-11-20T05:42:36;100673.78;;;6.40;62.49
64066;BME280;50318;54.760;9.408;2022-11-20T05:45:03;100671.19;;;6.33;62.57
64066;BME280;50318;54.760;9.408;2022-11-20T05:47:33;100676.19;;;6.34;62.81
64066;BME280;50318;54.760;9.408;2022-11-20T05:50:03;100674.75;;;6.30;62.59
64066;BME280;50318;54.760;9.408;2022-11-20T05:52:29;100676.28;;;6.31;61.83
64066;BME280;50318;54.760;9.408;2022-11-20T05:54:55;100672.44;;;6.28;62.02
64066;BME280;50318;54.760;9.408;2022-11-20T05:57:21;100679.50;;;6.26;62.07
64066;BME280;50318;54.760;9.408;2022-11-20T05:59:47;100669.03;;;6.24;62.29
64066;BME280;50318;54.760;9.408;2022-11-20T06:02:35;100678.03;;;6.21;62.78
64066;BME280;50318;54.760;9.408;2022-11-20T06:05:01;100671.84;;;6.21;62.62
64066;BME280;50318;54.760;9.408;2022-11-20T06:07:27;100682.72;;;6.21;62.51
64066;BME280;50318;54.760;9.408;2022-11-20T06:09:53;100674.97;;;6.19;62.55
64066;BME280;50318;54.760;9.408;2022-11-20T06:12:19;100676.59;;;6.17;62.49
64066;BME280;50318;54.760;9.408;2022-11-20T06:14:45;100678.13;;;6.18;63.19
64066;BME280;50318;54.760;9.408;2022-11-20T06:17:10;100672.25;;;6.19;62.66
64066;BME280;50318;54.760;9.408;2022-11-20T06:19:36;100668.75;;;6.19;62.57
64066;BME280;50318;54.760;9.408;2022-11-20T06:22:25;100669.53;;;6.19;62.66
64066;BME280;50318;54.760;9.408;2022-11-20T06:24:50;100673.03;;;6.20;62.84
64066;BME280;50318;54.760;9.408;2022-11-20T06:27:16;100671.19;;;6.13;62.51
64066;BME280;50318;54.760;9.408;2022-11-20T06:29:42;100676.22;;;6.14;63.06
64066;BME280;50318;54.760;9.408;2022-11-20T06:32:08;100675.81;;;6.16;63.08
64066;BME280;50318;54.760;9.408;2022-11-20T06:34:34;100679.66;;;6.19;63.04
64066;BME280;50318;54.760;9.408;2022-11-20T06:36:59;100681.97;;;6.20;62.25
64066;BME280;50318;54.760;9.408;2022-11-20T06:39:25;100675.75;;;6.20;62.33
64066;BME280;50318;54.760;9.408;2022-11-20T06:41:51;100671.75;;;6.24;62.23
64066;BME280;50318;54.760;9.408;2022-11-20T06:44:17;100674.41;;;6.28;62.72
64066;BME280;50318;54.760;9.408;2022-11-20T06:46:42;100669.66;;;6.32;62.59
64066;BME280;50318;54.760;9.408;2022-11-20T06:49:08;100682.84;;;6.33;61.92
64066;BME280;50318;54.760;9.408;2022-11-20T06:51:34;100671.69;;;6.28;61.94
64066;BME280;50318;54.760;9.408;2022-11-20T06:54:00;100673.91;;;6.33;61.72
64066;BME280;50318;54.760;9.408;2022-11-20T06:56:26;100668.53;;;6.29;61.67
64066;BME280;50318;54.760;9.408;2022-11-20T06:58:52;100672.53;;;6.25;61.84
64066;BME280;50318;54.760;9.408;2022-11-20T07:01:20;100672.69;;;6.18;61.61
64066;BME280;50318;54.760;9.408;2022-11-20T07:04:04;100668.88;;;6.11;62.09
64066;BME280;50318;54.760;9.408;2022-11-20T07:06:30;100677.41;;;6.13;61.31
64066;BME280;50318;54.760;9.408;2022-11-20T07:08:57;100660.88;;;6.04;62.02
64066;BME280;50318;54.760;9.408;2022-11-20T07:11:23;100671.69;;;6.08;62.06
64066;BME280;50318;54.760;9.408;2022-11-20T07:13:49;100682.22;;;6.06;61.39
64066;BME280;50318;54.760;9.408;2022-11-20T07:16:15;100690.88;;;6.01;61.43
64066;BME280;50318;54.760;9.408;2022-11-20T07:18:41;100682.09;;;5.93;61.17
64066;BME280;50318;54.760;9.408;2022-11-20T07:21:09;100684.88;;;5.90;60.94
64066;BME280;50318;54.760;9.408;2022-11-20T07:23:35;100681.00;;;5.87;61.38
64066;BME280;50318;54.760;9.408;2022-11-20T07:26:06;100677.16;;;5.84;61.47
64066;BME280;50318;54.760;9.408;2022-11-20T07:28:32;100680.66;;;5.85;61.74
64066;BME280;50318;54.760;9.408;2022-11-20T07:30:57;100673.59;;;5.88;62.05
64066;BME280;50318;54.760;9.408;2022-11-20T07:33:23;100667.28;;;5.94;62.27
64066;BME280;50318;54.760;9.408;2022-11-20T07:35:49;100674.97;;;5.99;61.85
64066;BME280;50318;54.760;9.408;2022-11-20T07:38:15;100671.25;;;6.09;61.60
64066;BME280;50318;54.760;9.408;2022-11-20T07:40:40;100666.50;;;6.13;61.67
64066;BME280;50318;54.760;9.408;2022-11-20T07:43:06;100678.13;;;6.18;61.32
64066;BME280;50318;54.760;9.408;2022-11-20T07:45:32;100668.00;;;6.18;61.11
64066;BME280;50318;54.760;9.408;2022-11-20T07:47:58;100672.59;;;6.21;61.20
64066;BME280;50318;54.760;9.408;2022-11-20T07:50:23;100673.13;;;6.32;60.75
64066;BME280;50318;54.760;9.408;2022-11-20T07:52:49;100679.22;;;6.40;61.03
64066;BME280;50318;54.760;9.408;2022-11-20T07:55:15;100677.09;;;6.47;61.00
64066;BME280;50318;54.760;9.408;2022-11-20T07:57:41;100674.31;;;6.51;60.54
64066;BME280;50318;54.760;9.408;2022-11-20T08:00:09;100671.50;;;6.55;60.57
64066;BME280;50318;54.760;9.408;2022-11-20T08:02:41;100668.84;;;6.51;59.60
64066;BME280;50318;54.760;9.408;2022-11-20T08:05:08;100670.88;;;6.47;59.91
64066;BME280;50318;54.760;9.408;2022-11-20T08:07:38;100665.88;;;6.45;60.22
64066;BME280;50318;54.760;9.408;2022-11-20T08:10:05;100679.84;;;6.47;60.19
64066;BME280;50318;54.760;9.408;2022-11-20T08:12:47;100671.06;;;6.40;60.03
64066;BME280;50318;54.760;9.408;2022-11-20T08:15:32;100681.09;;;6.43;60.63
64066;BME280;50318;54.760;9.408;2022-11-20T08:18:06;100680.00;;;6.40;60.19
64066;BME280;50318;54.760;9.408;2022-11-20T08:20:33;100684.72;;;6.36;60.04
64066;BME280;50318;54.760;9.408;2022-11-20T08:23:04;100688.63;;;6.35;59.50
64066;BME280;50318;54.760;9.408;2022-11-20T08:25:35;100690.41;;;6.26;58.94
64066;BME280;50318;54.760;9.408;2022-11-20T08:28:04;100699.91;;;6.18;59.16
64066;BME280;50318;54.760;9.408;2022-11-20T08:30:31;100703.09;;;6.12;58.70
64066;BME280;50318;54.760;9.408;2022-11-20T08:33:01;100694.72;;;6.03;58.93
64066;BME280;50318;54.760;9.408;2022-11-20T08:35:27;100690.25;;;5.93;59.09
64066;BME280;50318;54.760;9.408;2022-11-20T08:37:53;100697.66;;;5.93;59.22
64066;BME280;50318;54.760;9.408;2022-11-20T08:40:19;100696.53;;;5.90;58.47
64066;BME280;50318;54.760;9.408;2022-11-20T08:42:48;100695.78;;;5.86;59.44
64066;BME280;50318;54.760;9.408;2022-11-20T08:45:15;100703.53;;;5.88;59.56
64066;BME280;50318;54.760;9.408;2022-11-20T08:47:42;100697.69;;;5.89;60.29
64066;BME280;50318;54.760;9.408;2022-11-20T08:50:09;100695.22;;;5.98;59.84
64066;BME280;50318;54.760;9.408;2022-11-20T08:52:35;100711.00;;;6.07;59.77
64066;BME280;50318;54.760;9.408;2022-11-20T08:55:00;100703.81;;;6.17;59.57
64066;BME280;50318;54.760;9.408;2022-11-20T08:57:26;100708.00;;;6.21;59.13
64066;BME280;50318;54.760;9.408;2022-11-20T08:59:55;100706.06;;;6.22;59.36
64066;BME280;50318;54.760;9.408;2022-11-20T09:02:21;100712.81;;;6.33;59.02
64066;BME280;50318;54.760;9.408;2022-11-20T09:04:47;100706.59;;;6.33;58.63
64066;BME280;50318;54.760;9.408;2022-11-20T09:07:12;100718.56;;;6.39;57.84
64066;BME280;50318;54.760;9.408;2022-11-20T09:09:38;100706.59;;;6.33;57.83
64066;BME280;50318;54.760;9.408;2022-11-20T09:12:04;100710.50;;;6.32;57.78
64066;BME280;50318;54.760;9.408;2022-11-20T09:14:30;100715.59;;;6.30;57.65
64066;BME280;50318;54.760;9.408;2022-11-20T09:16:57;100704.03;;;6.26;58.57
64066;BME280;50318;54.760;9.408;2022-11-20T09:19:24;100715.47;;;6.37;58.86
64066;BME280;50318;54.760;9.408;2022-11-20T09:21:59;100717.00;;;6.38;58.34
64066;BME280;50318;54.760;9.408;2022-11-20T09:24:28;100720.34;;;6.45;58.92
64066;BME280;50318;54.760;9.408;2022-11-20T09:26:54;100715.69;;;6.46;58.34
64066;BME280;50318;54.760;9.408;2022-11-20T09:29:19;100727.81;;;6.61;59.99
64066;BME280;50318;54.760;9.408;2022-11-20T09:31:45;100721.03;;;6.69;59.09
64066;BME280;50318;54.760;9.408;2022-11-20T09:34:11;100728.28;;;6.76;58.55
64066;BME280;50318;54.760;9.408;2022-11-20T09:36:37;100711.06;;;6.79;58.36
64066;BME280;50318;54.760;9.408;2022-11-20T09:39:03;100705.88;;;6.85;58.54
64066;BME280;50318;54.760;9.408;2022-11-20T09:41:56;100702.75;;;6.86;58.63
64066;BME280;50318;54.760;9.408;2022-11-20T09:47:11;100701.56;;;6.87;57.78
64066;BME280;50318;54.760;9.408;2022-11-20T09:49:55;100698.06;;;6.87;56.57
64066;BME280;50318;54.760;9.408;2022-11-20T09:52:38;100694.63;;;6.83;56.33
64066;BME280;50318;54.760;9.408;2022-11-20T09:55:11;100695.81;;;6.82;57.61
64066;BME280;50318;54.760;9.408;2022-11-20T09:57:40;100695.41;;;6.83;57.44
64066;BME280;50318;54.760;9.408;2022-11-20T10:00:12;100691.41;;;6.88;57.99
64066;BME280;50318;54.760;9.408;2022-11-20T10:02:47;100700.97;;;6.96;58.24
64066;BME280;50318;54.760;9.408;2022-11-20T10:05:54;100693.81;;;7.02;57.91
64066;BME280;50318;54.760;9.408;2022-11-20T10:08:39;100695.00;;;7.01;55.85
64066;BME280;50318;54.760;9.408;2022-11-20T10:11:19;100691.16;;;6.98;56.86
64066;BME280;50318;54.760;9.408;2022-11-20T10:27:20;100682.13;;;7.01;54.60
64066;BME280;50318;54.760;9.408;2022-11-20T10:30:06;100682.56;;;7.00;54.58
64066;BME280;50318;54.760;9.408;2022-11-20T10:32:39;100672.94;;;6.95;54.04
64066;BME280;50318;54.760;9.408;2022-11-20T10:37:44;100664.97;;;6.85;54.16
64066;BME280;50318;54.760;9.408;2022-11-20T10:42:59;100664.22;;;6.84;54.11
64066;BME280;50318;54.760;9.408;2022-11-20T10:48:10;100660.38;;;6.82;53.70
64066;BME280;50318;54.760;9.408;2022-11-20T10:50:42;100659.19;;;6.83;54.43
64066;BME280;50318;54.760;9.408;2022-11-20T10:54:06;100652.53;;;6.84;53.13
64066;BME280;50318;54.760;9.408;2022-11-20T11:01:25;100652.41;;;6.91;53.42
64066;BME280;50318;54.760;9.408;2022-11-20T11:03:53;100656.22;;;6.93;53.41
64066;BME280;50318;54.760;9.408;2022-11-20T11:06:33;100655.81;;;6.95;54.02
64066;BME280;50318;54.760;9.408;2022-11-20T11:09:08;100633.31;;;6.91;53.77
64066;BME280;50318;54.760;9.408;2022-11-20T11:11:38;100655.44;;;7.09;54.15
64066;BME280;50318;54.760;9.408;2022-11-20T11:14:19;100656.81;;;7.17;54.21
64066;BME280;50318;54.760;9.408;2022-11-20T11:16:55;100647.59;;;7.27;53.99
64066;BME280;50318;54.760;9.408;2022-11-20T11:19:22;100638.06;;;7.35;53.67
64066;BME280;50318;54.760;9.408;2022-11-20T11:21:56;100639.06;;;7.42;54.28
64066;BME280;50318;54.760;9.408;2022-11-20T11:24:23;100638.53;;;7.47;51.77
64066;BME280;50318;54.760;9.408;2022-11-20T11:26:57;100631.22;;;7.44;52.39
64066;BME280;50318;54.760;9.408;2022-11-20T11:29:24;100626.19;;;7.42;52.38
64066;BME280;50318;54.760;9.408;2022-11-20T11:32:07;100636.75;;;7.40;51.72
64066;BME280;50318;54.760;9.408;2022-11-20T11:34:33;100631.06;;;7.34;50.87
64066;BME280;50318;54.760;9.408;2022-11-20T11:37:00;100635.00;;;7.33;51.08
64066;BME280;50318;54.760;9.408;2022-11-20T11:39:30;100627.97;;;7.32;51.25
64066;BME280;50318;54.760;9.408;2022-11-20T11:41:58;100627.47;;;7.37;51.83
64066;BME280;50318;54.760;9.408;2022-11-20T11:44:24;100633.84;;;7.47;51.99
64066;BME280;50318;54.760;9.408;2022-11-20T11:47:22;100626.41;;;7.48;51.16
64066;BME280;50318;54.760;9.408;2022-11-20T11:55:15;100622.50;;;7.78;51.46
64066;BME280;50318;54.760;9.408;2022-11-20T11:57:55;100625.47;;;7.83;51.19
64066;BME280;50318;54.760;9.408;2022-11-20T12:00:23;100618.13;;;7.80;50.34
64066;BME280;50318;54.760;9.408;2022-11-20T12:03:27;100616.81;;;7.72;51.06
64066;BME280;50318;54.760;9.408;2022-11-20T12:05:59;100617.78;;;7.65;50.91
64066;BME280;50318;54.760;9.408;2022-11-20T12:08:53;100621.09;;;7.57;52.30
64066;BME280;50318;54.760;9.408;2022-11-20T12:11:56;100623.06;;;7.56;51.95
64066;BME280;50318;54.760;9.408;2022-11-20T12:14:36;100621.97;;;7.54;50.94
64066;BME280;50318;54.760;9.408;2022-11-20T12:17:03;100613.09;;;7.50;51.18
64066;BME280;50318;54.760;9.408;2022-11-20T12:19:34;100620.63;;;7.46;51.21
64066;BME280;50318;54.760;9.408;2022-11-20T12:22:02;100608.38;;;7.37;52.06
64066;BME280;50318;54.760;9.408;2022-11-20T12:30:58;100607.88;;;7.26;51.53
64066;BME280;50318;54.760;9.408;2022-11-20T12:33:54;100605.66;;;7.21;51.65
64066;BME280;50318;54.760;9.408;2022-11-20T12:39:34;100590.81;;;7.22;52.04
64066;BME280;50318;54.760;9.408;2022-11-20T12:48:18;100563.69;;;7.31;54.41
64066;BME280;50318;54.760;9.408;2022-11-20T12:53:43;100550.75;;;7.35;52.24
64066;BME280;50318;54.760;9.408;2022-11-20T13:01:47;100554.50;;;7.25;51.85
64066;BME280;50318;54.760;9.408;2022-11-20T13:04:48;100552.97;;;7.24;51.97
64066;BME280;50318;54.760;9.408;2022-11-20T13:07:21;100550.25;;;7.24;52.13
64066;BME280;50318;54.760;9.408;2022-11-20T13:09:49;100557.56;;;7.27;51.83
64066;BME280;50318;54.760;9.408;2022-11-20T13:12:34;100550.34;;;7.21;50.97
64066;BME280;50318;54.760;9.408;2022-11-20T13:15:36;100551.53;;;7.20;51.99
64066;BME280;50318;54.760;9.408;2022-11-20T13:18:09;100550.78;;;7.19;51.02
64066;BME280;50318;54.760;9.408;2022-11-20T13:20:36;100543.44;;;7.16;51.31
64066;BME280;50318;54.760;9.408;2022-11-20T13:23:06;100544.13;;;7.20;50.62
64066;BME280;50318;54.760;9.408;2022-11-20T13:25:37;100548.03;;;7.19;50.79
64066;BME280;50318;54.760;9.408;2022-11-20T13:30:36;100544.44;;;7.22;51.13
64066;BME280;50318;54.760;9.408;2022-11-20T13:33:21;100540.31;;;7.30;53.09
64066;BME280;50318;54.760;9.408;2022-11-20T13:36:00;100541.34;;;7.36;51.92
64066;BME280;50318;54.760;9.408;2022-11-20T13:38:27;100532.97;;;7.44;52.13
64066;BME280;50318;54.760;9.408;2022-11-20T13:40:58;100537.22;;;7.45;50.53
64066;BME280;50318;54.760;9.408;2022-11-20T13:46:01;100524.44;;;7.42;48.85
64066;BME280;50318;54.760;9.408;2022-11-20T13:48:41;100526.94;;;7.36;50.30
64066;BME280;50318;54.760;9.408;2022-11-20T14:02:02;100537.69;;;7.56;50.50
64066;BME280;50318;54.760;9.408;2022-11-20T14:04:38;100531.28;;;7.62;50.83
64066;BME280;50318;54.760;9.408;2022-11-20T14:07:08;100525.81;;;7.62;48.70
64066;BME280;50318;54.760;9.408;2022-11-20T14:09:34;100525.06;;;7.62;49.97
64066;BME280;50318;54.760;9.408;2022-11-20T14:12:02;100530.50;;;7.62;47.91
64066;BME280;50318;54.760;9.408;2022-11-20T14:14:30;100533.75;;;7.57;48.24
64066;BME280;50318;54.760;9.408;2022-11-20T14:19:46;100527.78;;;7.62;50.00
64066;BME280;50318;54.760;9.408;2022-11-20T14:24:47;100517.38;;;7.57;47.37
64066;BME280;50318;54.760;9.408;2022-11-20T14:27:15;100510.81;;;7.54;48.93
64066;BME280;50318;54.760;9.408;2022-11-20T14:29:43;100509.72;;;7.52;48.96
64066;BME280;50318;54.760;9.408;2022-11-20T14:32:10;100496.09;;;7.52;48.67
64066;BME280;50318;54.760;9.408;2022-11-20T14:34:39;100505.69;;;7.56;49.87
64066;BME280;50318;54.760;9.408;2022-11-20T14:37:11;100500.66;;;7.55;49.76
64066;BME280;50318;54.760;9.408;2022-11-20T14:39:41;100498.81;;;7.52;49.41
64066;BME280;50318;54.760;9.408;2022-11-20T14:42:18;100500.22;;;7.44;48.13